Time;durP1;ratioP1;P1;durP2;ratioP2;P2;SDS_P1;SDS_P2;PMS_P1;PMS_P2;Temp;Humidity;BMP_temperature;BMP_pressure;BME280_temperature;BME280_humidity;BME280_pressure;Samples;Min_cycle;Max_cycle;Signal;HPM_P1;HPM_P2
2024/02/16 00:00:11;;;;;;;3.65;1.98;;;;;;;13.06;81.41;99153.06;4995158;28;20049;-49
2024/02/16 00:02:38;;;;;;;;;;;;;;;12.95;82.09;99161.16;4996552;28;22137;-49
2024/02/16 00:05:11;;;;;;;2.95;2.08;;;;;;;12.97;81.24;99163.72;5000012;28;19932;-48
2024/02/16 00:07:38;;;;;;;4.20;2.97;;;;;;;12.94;81.42;99169.00;4999302;28;20053;-48
2024/02/16 00:10:07;;;;;;;4.40;2.53;;;;;;;12.96;81.31;99172.38;4985300;28;20053;-50
2024/02/16 00:12:35;;;;;;;3.83;2.28;;;;;;;12.93;80.98;99167.28;4995966;28;20060;-50
2024/02/16 00:15:04;;;;;;;5.07;3.03;;;;;;;12.88;81.28;99171.75;4991288;28;20049;-47
2024/02/16 00:17:31;;;;;;;4.70;2.50;;;;;;;12.85;80.99;99163.16;4995948;28;20517;-48
2024/02/16 00:19:58;;;;;;;5.25;3.05;;;;;;;12.80;81.37;99165.00;4992153;28;20144;-47
2024/02/16 00:22:25;;;;;;;4.85;2.72;;;;;;;12.79;81.19;99150.31;4989919;28;20126;-51
2024/02/16 00:24:52;;;;;;;4.43;2.55;;;;;;;12.77;81.27;99151.25;4993847;28;20125;-50
2024/02/16 00:27:19;;;;;;;4.82;2.33;;;;;;;12.76;82.06;99168.56;5013498;28;20050;-52
2024/02/16 00:29:47;;;;;;;9.65;3.35;;;;;;;12.73;81.88;99166.06;5005185;28;20057;-50
2024/02/16 00:32:14;;;;;;;4.32;2.22;;;;;;;12.62;82.18;99162.88;5008869;28;20077;-56
2024/02/16 00:34:41;;;;;;;5.00;2.83;;;;;;;12.68;81.74;99167.94;5013953;28;20049;-49
2024/02/16 00:37:09;;;;;;;3.90;2.15;;;;;;;12.65;82.45;99162.81;5000669;28;20568;-47
2024/02/16 00:39:40;;;;;;;4.20;2.67;;;;;;;12.60;81.74;99171.56;4991764;28;20448;-49
2024/02/16 00:42:08;;;;;;;;;;;;;;;12.40;82.33;99179.00;4999731;28;20037;-47
2024/02/16 00:44:35;;;;;;;3.72;2.28;;;;;;;12.49;82.35;99178.78;5003328;28;19930;-51
2024/02/16 00:47:01;;;;;;;4.40;2.60;;;;;;;12.49;81.83;99178.78;5001632;28;20525;-51
2024/02/16 00:49:28;;;;;;;3.50;1.95;;;;;;;12.48;82.00;99182.28;4999547;28;20050;-48
2024/02/16 00:51:55;;;;;;;4.15;2.03;;;;;;;12.48;81.67;99174.47;5000589;28;20560;-52
2024/02/16 00:54:26;;;;;;;2.80;1.58;;;;;;;12.46;82.37;99181.44;5002531;28;20415;-51
2024/02/16 00:56:54;;;;;;;2.65;2.05;;;;;;;12.44;82.48;99186.69;5002387;28;20081;-49
2024/02/16 00:59:22;;;;;;;4.03;2.20;;;;;;;12.44;81.67;99191.88;5023040;28;20130;-48
2024/02/16 01:01:49;;;;;;;2.95;1.85;;;;;;;12.44;81.46;99188.44;5021473;28;20060;-48
2024/02/16 01:04:16;;;;;;;3.78;2.35;;;;;;;12.42;82.32;99192.78;5018506;28;20054;-48
2024/02/16 01:06:42;;;;;;;4.13;2.38;;;;;;;12.41;81.27;99201.47;5016483;28;20133;-50
2024/02/16 01:09:11;;;;;;;3.90;1.98;;;;;;;12.39;82.12;99209.31;5014064;28;20054;-50
2024/02/16 01:11:38;;;;;;;4.43;2.50;;;;;;;12.38;81.59;99206.75;5017969;28;20045;-49
2024/02/16 01:14:04;;;;;;;3.70;1.63;;;;;;;12.36;81.75;99208.53;5017548;28;20423;-49
2024/02/16 01:16:31;;;;;;;4.18;2.65;;;;;;;12.32;81.48;99208.59;5022816;28;20045;-44
2024/02/16 01:18:57;;;;;;;3.88;2.45;;;;;;;12.32;81.64;99213.81;5022602;28;20072;-49
2024/02/16 01:21:25;;;;;;;3.85;1.75;;;;;;;12.32;82.10;99213.81;5017256;28;20062;-51
2024/02/16 01:23:51;;;;;;;4.38;2.22;;;;;;;12.32;82.23;99213.81;5002011;28;20702;-47
2024/02/16 01:26:18;;;;;;;5.40;2.88;;;;;;;12.30;81.93;99207.78;4988529;28;20081;-46
2024/02/16 01:28:46;;;;;;;4.47;2.08;;;;;;;12.29;81.80;99200.88;4998586;28;20061;-47
2024/02/16 01:31:13;;;;;;;3.17;2.00;;;;;;;12.28;81.43;99217.34;5004976;28;20042;-48
2024/02/16 01:33:40;;;;;;;4.13;2.38;;;;;;;12.27;81.91;99220.00;5003877;28;20054;-48
2024/02/16 01:36:07;;;;;;;4.47;1.83;;;;;;;12.25;81.58;99220.03;4998613;28;20127;-53
2024/02/16 01:38:35;;;;;;;6.93;2.42;;;;;;;12.24;81.02;99220.91;5002171;28;20050;-48
2024/02/16 01:41:02;;;;;;;5.30;1.90;;;;;;;12.23;81.27;99224.41;4999917;28;20054;-51
2024/02/16 01:43:29;;;;;;;4.65;2.42;;;;;;;12.21;82.52;99226.16;5005062;28;20044;-46
2024/02/16 01:45:58;;;;;;;4.35;1.40;;;;;;;12.18;81.65;99226.25;4998282;28;20058;-48
2024/02/16 01:48:26;;;;;;;3.78;1.52;;;;;;;12.17;82.14;99221.94;4997509;28;20048;-45
2024/02/16 01:50:54;;;;;;;2.38;1.65;;;;;;;12.12;81.79;99221.19;5000468;28;20053;-49
2024/02/16 01:53:22;;;;;;;3.85;1.95;;;;;;;12.13;82.23;99226.31;4994853;28;20054;-46
2024/02/16 01:55:49;;;;;;;2.42;1.33;;;;;;;12.12;82.33;99241.97;4998263;28;20058;-48
2024/02/16 01:58:16;;;;;;;4.22;1.90;;;;;;;12.12;81.24;99236.78;4999025;28;20053;-48
2024/02/16 02:00:43;;;;;;;5.32;2.33;;;;;;;12.11;82.39;99235.03;5006949;28;20057;-47
2024/02/16 02:03:10;;;;;;;3.88;2.30;;;;;;;12.11;81.66;99235.03;5004747;28;20145;-49
2024/02/16 02:05:46;;;;;;;3.40;1.60;;;;;;;12.06;82.19;99233.41;5005380;28;20054;-48
2024/02/16 02:08:13;;;;;;;4.88;2.70;;;;;;;12.08;82.72;99226.44;4997966;28;20060;-48
2024/02/16 02:10:41;;;;;;;4.35;2.53;;;;;;;12.10;81.47;99228.16;5007368;28;20060;-46
2024/02/16 02:13:08;;;;;;;4.57;2.75;;;;;;;12.10;82.06;99234.22;4991103;28;20449;-51
2024/02/16 02:15:35;;;;;;;3.35;2.53;;;;;;;12.09;81.57;99237.66;5002646;28;20526;-47
2024/02/16 02:18:05;;;;;;;5.95;2.45;;;;;;;12.10;81.53;99235.94;4995278;28;20084;-50
2024/02/16 02:20:32;;;;;;;5.65;2.97;;;;;;;12.08;81.57;99244.63;5000060;28;20129;-46
2024/02/16 02:22:58;;;;;;;5.13;2.47;;;;;;;12.08;82.34;99236.84;5000976;28;20058;-48
2024/02/16 02:25:28;;;;;;;7.25;3.42;;;;;;;12.08;81.61;99247.22;5001510;28;20100;-50
2024/02/16 02:27:55;;;;;;;4.78;2.30;;;;;;;12.07;81.55;99250.72;5007616;28;20049;-47
2024/02/16 02:30:22;;;;;;;6.47;2.97;;;;;;;12.06;81.42;99250.75;5006496;28;20045;-50
2024/02/16 02:32:51;;;;;;;4.25;2.85;;;;;;;12.04;81.49;99255.94;4999094;28;20136;-47
2024/02/16 02:35:18;;;;;;;5.53;2.58;;;;;;;12.03;81.48;99249.00;5006761;28;20664;-48
2024/02/16 02:37:44;;;;;;;5.70;2.35;;;;;;;12.01;81.32;99249.94;5003794;28;20069;-45
2024/02/16 02:40:12;;;;;;;5.88;2.38;;;;;;;12.00;81.85;99250.81;5008591;28;20049;-45
2024/02/16 02:42:38;;;;;;;6.07;2.78;;;;;;;11.98;81.97;99258.66;5026826;28;20056;-51
2024/02/16 02:45:06;;;;;;;4.32;2.42;;;;;;;11.98;81.94;99255.19;5020510;28;20155;-47
2024/02/16 02:47:32;;;;;;;5.15;3.35;;;;;;;11.98;82.43;99263.84;5022292;28;20052;-44
2024/02/16 02:49:59;;;;;;;6.75;2.83;;;;;;;11.99;80.99;99256.91;5025742;28;20057;-48
2024/02/16 02:52:26;;;;;;;4.82;3.03;;;;;;;11.98;82.22;99245.66;5027583;28;20050;-46
2024/02/16 02:54:55;;;;;;;4.57;2.78;;;;;;;11.99;81.32;99252.56;5025262;28;20469;-45
2024/02/16 02:57:23;;;;;;;5.80;3.22;;;;;;;11.98;81.29;99250.84;5020990;28;20064;-48
2024/02/16 02:59:50;;;;;;;7.72;3.28;;;;;;;11.96;81.61;99242.28;5024336;28;20140;-45
2024/02/16 03:02:18;;;;;;;5.22;2.85;;;;;;;11.97;81.93;99238.78;5020224;28;20136;-44
2024/02/16 03:04:45;;;;;;;5.55;2.83;;;;;;;11.96;81.39;99242.28;5020606;28;20041;-47
2024/02/16 03:07:14;;;;;;;5.18;2.55;;;;;;;11.96;81.69;99261.28;5024757;28;20137;-49
2024/02/16 03:09:43;;;;;;;5.95;2.55;;;;;;;11.95;81.95;99262.16;5019881;28;20072;-44
2024/02/16 03:12:09;;;;;;;5.55;2.72;;;;;;;11.94;80.92;99264.78;5023969;28;20084;-49
2024/02/16 03:14:37;;;;;;;4.30;2.20;;;;;;;11.92;81.64;99271.78;5014275;28;20073;-49
2024/02/16 03:17:04;;;;;;;5.65;2.55;;;;;;;11.85;82.00;99280.56;5023524;28;20056;-47
2024/02/16 03:19:30;;;;;;;5.70;2.85;;;;;;;11.78;81.77;99285.84;4997953;28;20058;-47
2024/02/16 03:21:58;;;;;;;4.47;2.08;;;;;;;11.74;81.17;99289.41;5013421;28;20045;-48
2024/02/16 03:24:26;;;;;;;4.45;2.25;;;;;;;11.73;81.03;99292.88;5026599;28;20041;-48
2024/02/16 03:26:53;;;;;;;3.83;1.85;;;;;;;11.70;81.37;99295.53;5026167;28;20072;-50
2024/02/16 03:29:20;;;;;;;4.20;2.50;;;;;;;11.69;82.29;99312.84;5021962;28;20145;-46
2024/02/16 03:31:46;;;;;;;3.30;2.05;;;;;;;11.63;82.53;99325.94;5020665;28;20045;-44
2024/02/16 03:34:13;;;;;;;4.00;1.70;;;;;;;11.63;81.23;99333.72;5021805;28;20052;-46
2024/02/16 03:36:40;;;;;;;3.00;1.58;;;;;;;11.61;82.48;99339.78;5026955;28;20049;-49
2024/02/16 03:39:09;;;;;;;3.58;1.98;;;;;;;11.59;81.64;99346.75;5022022;28;20525;-48
2024/02/16 03:41:36;;;;;;;3.75;1.70;;;;;;;11.58;81.24;99351.09;4993874;28;20157;-51
2024/02/16 03:44:02;;;;;;;2.97;1.40;;;;;;;11.55;81.23;99357.19;5017194;28;20065;-47
2024/02/16 03:46:30;;;;;;;3.60;2.13;;;;;;;11.54;82.22;99352.88;5026154;28;20045;-46
2024/02/16 03:48:56;;;;;;;5.30;2.15;;;;;;;11.54;82.56;99354.63;5020469;28;20053;-46
2024/02/16 03:51:23;;;;;;;3.38;2.45;;;;;;;11.52;82.12;99356.41;5023765;28;20049;-45
2024/02/16 03:53:50;;;;;;;4.68;2.40;;;;;;;11.52;82.49;99348.63;5024482;28;20800;-47
2024/02/16 03:56:20;;;;;;;8.05;1.70;;;;;;;11.52;81.42;99346.03;5022569;28;20050;-44
2024/02/16 03:58:47;;;;;;;5.05;2.08;;;;;;;11.49;81.75;99344.34;5020543;28;20140;-49
2024/02/16 04:01:14;;;;;;;4.13;2.00;;;;;;;11.48;82.55;99346.97;5021303;28;20081;-47
2024/02/16 04:03:41;;;;;;;4.20;1.48;;;;;;;11.48;82.00;99349.56;5011818;28;20050;-47
2024/02/16 04:06:08;;;;;;;7.75;1.98;;;;;;;11.46;82.56;99347.00;4998242;28;20041;-47
2024/02/16 04:08:36;;;;;;;1.88;1.20;;;;;;;11.45;82.13;99340.06;4999693;28;20073;-47
2024/02/16 04:11:03;;;;;;;2.63;1.30;;;;;;;11.44;81.26;99348.75;5009204;28;20042;-44
2024/02/16 04:13:32;;;;;;;2.80;1.38;;;;;;;11.42;81.14;99342.75;5003382;28;20112;-50
2024/02/16 04:16:00;;;;;;;2.15;1.25;;;;;;;11.42;81.14;99340.16;5010131;28;20060;-47
2024/02/16 04:18:27;;;;;;;2.40;1.67;;;;;;;11.39;81.85;99347.97;5014138;28;20072;-45
2024/02/16 04:20:55;;;;;;;2.50;1.75;;;;;;;11.39;82.53;99347.97;5015678;28;20052;-49
2024/02/16 04:23:24;;;;;;;2.65;0.85;;;;;;;11.38;81.13;99349.69;5019948;28;20059;-49
2024/02/16 04:25:52;;;;;;;4.85;1.25;;;;;;;11.37;81.47;99352.31;5019235;28;20069;-48
2024/02/16 04:28:19;;;;;;;4.45;1.35;;;;;;;11.36;82.08;99360.97;5019375;28;20046;-51
2024/02/16 04:30:45;;;;;;;3.38;1.55;;;;;;;11.34;81.38;99368.78;5021932;28;20055;-50
2024/02/16 04:33:13;;;;;;;2.90;1.33;;;;;;;11.31;82.02;99374.88;4994175;28;20082;-50
2024/02/16 04:35:41;;;;;;;2.40;1.27;;;;;;;11.28;80.96;99385.28;4998231;28;20054;-51
2024/02/16 04:38:07;;;;;;;2.63;1.45;;;;;;;11.27;81.21;99393.97;5015323;28;20046;-49
2024/02/16 04:40:37;;;;;;;2.13;1.08;;;;;;;11.27;81.81;99393.97;5021625;28;20045;-46
2024/02/16 04:43:04;;;;;;;2.25;1.35;;;;;;;11.24;81.42;99394.00;5005076;28;20503;-48
2024/02/16 04:45:30;;;;;;;8.50;1.67;;;;;;;11.21;81.85;99388.88;5014476;28;20050;-47
2024/02/16 04:47:58;;;;;;;1.73;0.93;;;;;;;11.22;82.32;99385.41;5023329;28;20049;-47
2024/02/16 04:50:26;;;;;;;2.33;1.13;;;;;;;11.21;80.92;99388.03;5014677;28;20145;-49
2024/02/16 04:52:53;;;;;;;2.38;1.48;;;;;;;11.19;82.01;99377.69;5018697;28;20061;-49
2024/02/16 04:55:22;;;;;;;2.85;1.67;;;;;;;11.17;81.92;99379.44;5016576;28;20046;-50
2024/02/16 04:57:49;;;;;;;3.10;1.25;;;;;;;11.13;81.42;99370.00;5005960;28;20050;-47
2024/02/16 05:00:17;;;;;;;5.43;1.80;;;;;;;11.11;81.56;99384.72;4997367;28;20057;-46
2024/02/16 05:02:46;;;;;;;3.97;2.45;;;;;;;11.10;81.90;99401.13;4997886;28;20140;-50
2024/02/16 05:05:13;;;;;;;3.70;1.88;;;;;;;11.05;81.31;99394.28;5004758;28;20517;-45
2024/02/16 05:07:41;;;;;;;4.70;2.28;;;;;;;11.05;81.39;99409.00;5002022;28;20061;-47
2024/02/16 05:10:09;;;;;;;4.65;1.75;;;;;;;11.02;81.58;99403.84;4999728;28;20129;-48
2024/02/16 05:12:37;;;;;;;3.65;2.03;;;;;;;10.99;81.27;99404.75;5002964;28;20045;-49
2024/02/16 05:15:05;;;;;;;4.85;1.65;;;;;;;10.98;81.99;99413.41;5001979;28;20053;-48
2024/02/16 05:17:32;;;;;;;3.05;1.95;;;;;;;10.96;81.01;99420.34;5006665;28;20089;-44
2024/02/16 05:19:59;;;;;;;4.75;2.75;;;;;;;10.94;82.32;99422.09;4999391;28;20049;-47
2024/02/16 05:22:27;;;;;;;3.67;1.98;;;;;;;10.93;82.50;99435.94;5000859;28;20714;-47
2024/02/16 05:24:54;;;;;;;6.20;1.63;;;;;;;10.91;82.44;99432.53;5000659;28;20048;-51
2024/02/16 05:27:20;;;;;;;5.55;2.20;;;;;;;10.91;82.62;99432.53;4997114;28;20058;-47
2024/02/16 05:29:47;;;;;;;7.25;2.67;;;;;;;10.90;81.49;99433.38;4998683;28;20042;-46
2024/02/16 05:32:14;;;;;;;3.88;2.38;;;;;;;10.89;82.39;99444.63;5001446;28;20127;-51
2024/02/16 05:34:42;;;;;;;4.15;1.70;;;;;;;10.87;81.99;99441.19;5005602;28;20042;-47
2024/02/16 05:37:09;;;;;;;6.20;2.83;;;;;;;10.85;81.93;99449.00;5018684;28;20049;-44
2024/02/16 05:39:53;;;;;;;4.28;2.65;;;;;;;10.83;82.44;99448.16;5013808;28;20045;-45
2024/02/16 05:42:22;;;;;;;5.38;3.17;;;;;;;10.80;81.58;99462.00;4995391;28;20764;-46
2024/02/16 05:44:49;;;;;;;3.85;2.22;;;;;;;10.79;81.41;99462.91;5004847;28;20398;-46
2024/02/16 05:47:16;;;;;;;4.45;2.40;;;;;;;10.78;81.65;99468.09;5001319;28;20054;-48
2024/02/16 05:49:46;;;;;;;6.97;3.30;;;;;;;10.77;81.88;99467.22;5004028;28;20129;-49
2024/02/16 05:52:17;;;;;;;;;;;;;;;10.65;82.04;99469.97;5008671;28;20050;-47
2024/02/16 05:54:45;;;;;;;5.05;2.38;;;;;;;10.72;81.89;99469.03;5005352;28;20322;-45
2024/02/16 05:57:12;;;;;;;5.47;2.55;;;;;;;10.74;83.08;99471.59;5003879;28;20042;-46
2024/02/16 05:59:39;;;;;;;5.03;2.85;;;;;;;10.72;82.90;99474.22;5007885;28;20046;-49
2024/02/16 06:02:07;;;;;;;4.88;2.15;;;;;;;10.68;82.52;99490.66;5000985;28;20054;-45
2024/02/16 06:04:37;;;;;;;4.53;2.40;;;;;;;10.67;81.90;99487.22;5006367;28;20052;-45
2024/02/16 06:07:03;;;;;;;4.22;2.65;;;;;;;10.63;82.07;99495.03;5003798;28;20129;-47
2024/02/16 06:09:33;;;;;;;5.00;3.17;;;;;;;10.61;82.03;99497.63;4997635;28;20502;-47
2024/02/16 06:12:03;;;;;;;3.90;2.10;;;;;;;10.58;82.21;99502.88;4991690;28;20050;-47
2024/02/16 06:14:31;;;;;;;4.10;2.10;;;;;;;10.54;83.03;99504.63;4991270;28;20499;-48
2024/02/16 06:16:59;;;;;;;4.68;1.52;;;;;;;10.53;82.26;99502.91;5002011;28;20050;-45
2024/02/16 06:19:27;;;;;;;5.70;2.08;;;;;;;10.59;81.77;99508.88;5003490;28;20046;-46
2024/02/16 06:21:55;;;;;;;7.80;2.03;;;;;;;10.60;82.55;99513.22;5002203;28;20144;-46
2024/02/16 06:24:22;;;;;;;5.35;2.22;;;;;;;10.61;82.73;99508.00;5003405;28;20136;-45
2024/02/16 06:26:51;;;;;;;6.50;2.17;;;;;;;10.56;82.83;99514.09;5000460;28;20065;-45
2024/02/16 06:29:22;;;;;;;4.07;2.22;;;;;;;10.59;82.48;99514.94;5000921;28;20050;-45
2024/02/16 06:31:49;;;;;;;7.13;1.90;;;;;;;10.59;82.62;99525.28;4994749;28;20058;-45
2024/02/16 06:34:17;;;;;;;5.28;2.10;;;;;;;10.61;81.94;99533.88;5006154;28;20060;-48
2024/02/16 06:36:44;;;;;;;10.48;1.75;;;;;;;10.58;82.38;99538.25;5006294;28;20061;-46
2024/02/16 06:39:16;;;;;;;6.65;3.05;;;;;;;10.59;82.37;99551.19;5002080;28;20051;-46
2024/02/16 06:41:45;;;;;;;8.68;2.13;;;;;;;10.60;82.01;99546.88;4984934;28;20156;-44
2024/02/16 06:44:14;;;;;;;5.55;1.85;;;;;;;10.60;82.82;99552.06;4991350;28;20060;-44
2024/02/16 06:46:41;;;;;;;4.55;2.03;;;;;;;10.57;82.54;99552.94;4995978;28;20050;-44
2024/02/16 06:49:08;;;;;;;4.32;1.20;;;;;;;10.58;81.89;99554.66;4996637;28;20057;-45
2024/02/16 06:51:36;;;;;;;3.83;1.48;;;;;;;10.59;82.15;99560.69;5001485;28;20049;-48
2024/02/16 06:54:04;;;;;;;4.80;1.48;;;;;;;10.60;82.55;99567.59;5019662;28;20712;-44
2024/02/16 06:56:33;;;;;;;5.72;1.60;;;;;;;10.61;82.03;99579.66;5000145;28;20054;-49
2024/02/16 06:59:00;;;;;;;6.10;2.38;;;;;;;10.58;83.04;99582.28;5006255;28;20046;-49
2024/02/16 07:01:27;;;;;;;4.57;2.58;;;;;;;10.59;81.98;99576.22;5009508;28;20050;-45
2024/02/16 07:03:54;;;;;;;4.82;2.00;;;;;;;10.60;81.75;99591.75;5001621;28;20053;-47
2024/02/16 07:06:21;;;;;;;6.40;2.75;;;;;;;10.59;83.10;99597.81;5003387;28;20056;-46
2024/02/16 07:08:48;;;;;;;5.53;2.45;;;;;;;10.60;82.28;99598.69;4995514;28;20830;-45
2024/02/16 07:11:15;;;;;;;8.00;3.30;;;;;;;10.59;82.46;99609.88;4999478;28;20103;-48
2024/02/16 07:13:43;;;;;;;7.82;2.47;;;;;;;10.59;82.37;99612.47;5014842;28;20132;-46
2024/02/16 07:16:09;;;;;;;5.95;1.90;;;;;;;10.58;83.06;99611.63;5017476;28;20053;-45
2024/02/16 07:18:36;;;;;;;5.50;2.38;;;;;;;10.58;82.44;99621.13;5024209;28;20065;-45
2024/02/16 07:21:03;;;;;;;5.35;2.08;;;;;;;10.58;82.40;99622.00;5013136;28;20099;-46
2024/02/16 07:23:30;;;;;;;4.13;1.58;;;;;;;10.57;81.56;99629.78;5000866;28;20099;-49
2024/02/16 07:25:57;;;;;;;5.05;1.48;;;;;;;10.56;82.30;99636.69;5022570;28;20047;-46
2024/02/16 07:28:27;;;;;;;4.50;1.42;;;;;;;10.54;82.92;99641.03;5017142;28;20064;-45
2024/02/16 07:30:53;;;;;;;6.15;1.80;;;;;;;10.57;82.74;99650.50;5023055;28;20050;-45
2024/02/16 07:33:24;;;;;;;4.57;1.88;;;;;;;10.56;82.75;99653.94;5026992;28;20060;-47
2024/02/16 07:35:51;;;;;;;4.68;2.03;;;;;;;10.57;81.54;99666.03;5026511;28;20568;-49
2024/02/16 07:38:21;;;;;;;4.13;2.17;;;;;;;10.57;82.45;99666.03;5026808;28;20042;-46
2024/02/16 07:40:50;;;;;;;6.55;1.70;;;;;;;10.55;82.64;99679.00;5027484;28;20427;-48
2024/02/16 07:43:19;;;;;;;5.75;1.75;;;;;;;10.53;82.11;99681.59;5022796;28;20141;-50
2024/02/16 07:45:46;;;;;;;9.52;3.03;;;;;;;10.58;81.79;99683.28;5017567;28;20072;-47
2024/02/16 07:48:13;;;;;;;5.20;2.40;;;;;;;10.58;82.04;99688.47;5018621;28;20053;-45
2024/02/16 07:50:41;;;;;;;5.72;1.95;;;;;;;10.58;82.17;99704.00;5011148;28;20080;-49
2024/02/16 07:53:09;;;;;;;6.50;2.65;;;;;;;10.57;82.24;99702.28;5017592;28;20060;-46
2024/02/16 07:55:37;;;;;;;5.72;2.28;;;;;;;10.58;81.53;99701.41;5013769;28;20873;-44
2024/02/16 07:58:04;;;;;;;7.60;2.15;;;;;;;10.57;81.41;99708.31;5013875;28;20050;-43
2024/02/16 08:00:31;;;;;;;5.88;1.75;;;;;;;10.59;81.59;99714.34;5021199;28;20124;-49
2024/02/16 08:02:59;;;;;;;4.57;1.85;;;;;;;10.59;82.39;99711.75;5025403;28;20053;-50
2024/02/16 08:05:26;;;;;;;4.97;2.22;;;;;;;10.58;82.14;99715.22;5022985;28;20050;-48
2024/02/16 08:07:54;;;;;;;6.65;1.85;;;;;;;10.59;81.76;99722.13;5018302;28;20446;-47
2024/02/16 08:10:22;;;;;;;5.68;1.80;;;;;;;10.54;81.50;99719.56;5012295;28;20052;-49
2024/02/16 08:12:49;;;;;;;7.45;1.63;;;;;;;10.51;82.01;99724.75;5015213;28;20092;-51
2024/02/16 08:15:22;;;;;;;6.90;1.90;;;;;;;10.53;81.73;99728.19;5009990;28;20076;-47
2024/02/16 08:17:50;;;;;;;5.80;2.67;;;;;;;10.53;81.73;99730.78;5006795;28;20566;-48
2024/02/16 08:20:17;;;;;;;8.93;2.58;;;;;;;10.53;81.16;99741.16;5012679;28;20049;-45
2024/02/16 08:22:45;;;;;;;4.05;2.00;;;;;;;10.65;82.17;99747.09;5014326;28;20050;-46
2024/02/16 08:25:14;;;;;;;6.32;2.17;;;;;;;11.13;81.66;99743.22;5015240;28;20503;-44
2024/02/16 08:27:42;;;;;;;5.05;1.83;;;;;;;11.29;80.87;99755.16;5016886;28;20131;-47
2024/02/16 08:30:11;;;;;;;6.57;2.38;;;;;;;11.28;80.35;99753.44;5018733;28;20145;-44
2024/02/16 08:32:39;;;;;;;4.57;2.08;;;;;;;11.25;80.20;99757.81;5021193;28;20136;-46
2024/02/16 08:35:06;;;;;;;3.40;1.80;;;;;;;11.18;81.11;99768.22;5020314;28;20053;-47
2024/02/16 08:37:35;;;;;;;6.43;1.77;;;;;;;11.12;81.06;99778.66;5025980;28;20111;-50
2024/02/16 08:40:04;;;;;;;6.40;2.20;;;;;;;11.05;79.44;99777.84;5024151;28;20049;-43
2024/02/16 08:42:31;;;;;;;3.83;1.38;;;;;;;10.99;80.76;99785.69;5023241;28;20053;-48
2024/02/16 08:45:00;;;;;;;7.90;1.58;;;;;;;10.95;80.66;99786.59;5021431;28;20383;-47
2024/02/16 08:47:27;;;;;;;9.77;1.90;;;;;;;10.93;79.76;99793.50;5017463;28;20527;-49
2024/02/16 08:49:54;;;;;;;3.50;1.63;;;;;;;10.92;80.81;99796.97;5019421;28;20065;-49
2024/02/16 08:52:20;;;;;;;6.25;2.03;;;;;;;10.91;80.45;99811.66;5026783;28;20510;-47
2024/02/16 08:54:47;;;;;;;6.70;0.95;;;;;;;10.89;80.62;99799.59;5030122;28;20049;-46
2024/02/16 08:57:15;;;;;;;8.25;1.42;;;;;;;10.96;81.14;99805.56;5021611;28;20049;-47
2024/02/16 08:59:44;;;;;;;7.07;1.85;;;;;;;11.07;79.71;99813.28;5021979;28;20434;-48
2024/02/16 09:02:10;;;;;;;6.55;2.80;;;;;;;11.12;79.31;99821.84;5021330;28;20957;-48
2024/02/16 09:04:37;;;;;;;8.35;1.50;;;;;;;11.04;79.76;99815.00;5011647;28;20057;-48
2024/02/16 09:07:04;;;;;;;7.38;1.90;;;;;;;11.03;79.42;99815.03;4997029;28;20050;-46
2024/02/16 09:09:31;;;;;;;2.95;1.17;;;;;;;11.00;79.73;99826.28;5003208;28;20068;-48
2024/02/16 09:11:58;;;;;;;8.52;1.73;;;;;;;11.00;79.11;99828.88;5010365;28;20057;-45
2024/02/16 09:14:26;;;;;;;6.75;1.85;;;;;;;11.03;79.59;99821.06;5007756;28;20520;-45
2024/02/16 09:16:53;;;;;;;3.53;1.15;;;;;;;11.05;80.33;99837.44;5006475;28;20045;-48
2024/02/16 09:19:20;;;;;;;7.97;1.95;;;;;;;11.10;80.02;99841.75;5010839;28;20042;-49
2024/02/16 09:21:49;;;;;;;7.63;2.28;;;;;;;11.18;79.39;99845.16;5010409;28;20054;-46
2024/02/16 09:24:17;;;;;;;5.88;1.73;;;;;;;11.24;79.58;99855.44;4998577;28;20061;-45
2024/02/16 09:26:46;;;;;;;5.75;1.95;;;;;;;11.22;79.61;99862.41;5003575;28;20049;-48
2024/02/16 09:29:13;;;;;;;6.45;3.10;;;;;;;11.18;79.42;99860.72;5009480;28;20104;-47
2024/02/16 09:31:41;;;;;;;7.03;1.60;;;;;;;11.12;79.08;99868.53;4988048;28;20758;-47
2024/02/16 09:34:08;;;;;;;4.85;1.30;;;;;;;11.09;79.17;99876.31;4993406;28;20042;-51
2024/02/16 09:36:37;;;;;;;5.18;1.65;;;;;;;11.11;78.75;99879.75;4994424;28;20058;-44
2024/02/16 09:39:06;;;;;;;6.53;2.15;;;;;;;11.23;78.78;99883.97;5003089;28;20050;-44
2024/02/16 09:41:38;;;;;;;3.15;1.05;;;;;;;11.31;78.86;99896.00;5002495;28;20073;-47
2024/02/16 09:44:06;;;;;;;3.33;1.92;;;;;;;11.40;78.24;99902.00;4990407;28;20060;-48
2024/02/16 09:46:33;;;;;;;9.82;2.05;;;;;;;11.49;79.37;99907.13;5004213;28;20099;-45
2024/02/16 09:49:02;;;;;;;10.25;1.88;;;;;;;12.08;78.51;99906.56;5010418;28;20049;-50
2024/02/16 09:51:30;;;;;;;4.85;2.03;;;;;;;12.34;76.79;99907.13;5005631;28;20542;-46
2024/02/16 09:53:57;;;;;;;5.93;1.80;;;;;;;12.36;76.48;99905.34;5007069;28;20065;-47
2024/02/16 09:56:26;;;;;;;3.75;1.38;;;;;;;12.37;76.62;99911.41;5005588;28;20068;-48
2024/02/16 09:58:54;;;;;;;6.47;1.55;;;;;;;12.39;76.11;99914.88;4988173;28;20050;-50
2024/02/16 10:01:23;;;;;;;9.13;2.33;;;;;;;13.03;77.26;99925.25;4999491;28;20106;-48
2024/02/16 10:03:50;;;;;;;8.23;2.03;;;;;;;14.06;76.31;99926.16;4988934;28;20057;-47
2024/02/16 10:06:18;;;;;;;8.68;1.95;;;;;;;15.01;74.13;99932.03;5002218;28;20053;-46
2024/02/16 10:08:51;;;;;;;5.50;1.63;;;;;;;16.05;73.39;99940.81;5026483;28;20136;-51
2024/02/16 10:11:21;;;;;;;7.05;1.25;;;;;;;17.07;71.50;99949.22;5031605;28;20124;-44
2024/02/16 10:16:31;;;;;;;4.65;2.90;;;;;;;18.45;68.19;99959.47;5009457;28;20425;-51
2024/02/16 10:19:10;;;;;;;5.70;3.10;;;;;;;19.07;66.50;99956.25;5001688;28;20054;-47
2024/02/16 10:21:43;;;;;;;4.45;2.90;;;;;;;19.75;65.62;99968.38;5000898;28;20990;-48
2024/02/16 10:24:14;;;;;;;6.13;3.25;;;;;;;20.16;64.28;99966.69;4999076;28;20108;-48
2024/02/16 10:26:41;;;;;;;4.00;3.22;;;;;;;20.67;63.69;99974.09;5001205;28;20052;-51
2024/02/16 10:29:11;;;;;;;7.07;2.25;;;;;;;20.58;62.08;99982.38;5005917;28;20508;-46
2024/02/16 10:31:38;;;;;;;4.57;2.47;;;;;;;20.08;61.34;99979.31;5005802;28;20054;-47
2024/02/16 10:34:06;;;;;;;6.05;3.20;;;;;;;19.47;60.93;99994.94;4995814;28;20051;-50
2024/02/16 10:36:38;;;;;;;6.07;2.92;;;;;;;18.83;60.98;99985.16;4999371;28;20042;-47
2024/02/16 10:39:10;;;;;;;4.60;3.38;;;;;;;18.36;61.74;99986.88;5001985;28;20056;-50
2024/02/16 10:41:39;;;;;;;2.83;2.42;;;;;;;18.34;62.58;99987.84;5000554;28;20038;-49
2024/02/16 10:44:08;;;;;;;3.33;2.78;;;;;;;18.13;61.90;100000.78;4997291;28;20051;-48
2024/02/16 10:46:35;;;;;;;3.28;2.08;;;;;;;17.90;62.37;100006.81;5001571;28;20058;-47
2024/02/16 10:49:05;;;;;;;3.45;3.00;;;;;;;17.65;62.19;100003.22;4999218;28;20054;-48
2024/02/16 10:51:55;;;;;;;4.55;2.25;;;;;;;17.38;61.76;100018.06;4999368;28;20895;-50
2024/02/16 10:54:27;;;;;;;5.38;2.55;;;;;;;17.62;62.51;100026.06;4999497;28;20061;-48
2024/02/16 10:56:54;;;;;;;5.85;2.63;;;;;;;17.79;62.35;100017.63;5002464;28;20137;-45
2024/02/16 10:59:24;;;;;;;5.63;1.98;;;;;;;18.23;61.06;100027.53;5006090;28;20413;-53
2024/02/16 11:02:01;;;;;;;3.80;2.40;;;;;;;18.26;60.51;100031.78;5016790;28;20049;-53
2024/02/16 11:04:49;;;;;;;3.38;2.05;;;;;;;17.85;59.89;100033.16;5014477;28;20074;-51
2024/02/16 11:07:20;;;;;;;4.53;2.50;;;;;;;17.61;60.35;100035.66;5015357;28;20045;-49
2024/02/16 11:09:48;;;;;;;2.03;1.80;;;;;;;17.55;60.76;100039.34;5016856;28;20061;-49
2024/02/16 11:12:15;;;;;;;3.88;2.33;;;;;;;17.54;60.56;100039.38;5012544;28;20092;-46
2024/02/16 11:14:45;;;;;;;3.58;2.47;;;;;;;17.23;60.33;100043.84;5015431;28;20046;-48
2024/02/16 11:17:14;;;;;;;2.45;2.20;;;;;;;16.90;60.74;100039.53;5016087;28;20054;-45
2024/02/16 11:19:42;;;;;;;4.05;3.35;;;;;;;16.66;60.86;100036.72;5012622;28;20561;-52
2024/02/16 11:22:11;;;;;;;4.20;2.22;;;;;;;16.42;61.70;100039.09;5009880;28;20057;-47
2024/02/16 11:24:44;;;;;;;3.78;2.42;;;;;;;16.10;61.41;100042.56;5015916;28;20060;-49
2024/02/16 11:27:12;;;;;;;4.78;2.35;;;;;;;15.96;62.39;100042.91;5009256;28;20041;-49
2024/02/16 11:29:39;;;;;;;5.28;2.13;;;;;;;15.69;61.75;100043.53;5007786;28;20129;-48
2024/02/16 11:32:07;;;;;;;5.40;2.10;;;;;;;15.42;62.66;100041.56;5004191;28;20045;-47
2024/02/16 11:34:34;;;;;;;2.63;2.42;;;;;;;15.26;62.48;100046.25;5000026;28;20054;-48
2024/02/16 11:37:02;;;;;;;3.17;2.40;;;;;;;15.38;63.29;100039.91;5006905;28;20056;-49
2024/02/16 11:39:31;;;;;;;5.95;2.63;;;;;;;15.49;64.03;100044.88;5005603;28;20069;-48